Flight Track Log - Related Links

Times and Time Zones

All times are in EDT time to prevent confusion due to time zone crossing. See the UAL5915 flight status page for this flight to view local times or setup timezone preferences in your user account.

Time Position Orientation Groundspeed Altitude Reporting Facility
EDT Latitude Longitude Course Direction KTS MPH feet Rate Location/Type
Mon 13:34:48 36.1958 -95.8711 91° East 176 203 1,200  Level Kansas City Center
Mon 13:35:42 36.1950 -95.8117 91° East 187 215 3,700 2,682 Climbing Kansas City Center
Mon 13:36:13 36.1964 -95.7828 87° East 197 227 5,000 2,419 Climbing Kansas City Center
Mon 13:36:44 36.1928 -95.7369 96° East 222 255 6,200 2,459 Climbing Kansas City Center
Mon 13:37:14 36.1817 -95.6878 106° East 243 280 7,500 2,298 Climbing Kansas City Center
Mon 13:38:18 36.1597 -95.5958 106° East 275 316 9,800 1,968 Climbing Kansas City Center
Mon 13:39:19 36.1364 -95.4917 105° East 305 351 11,600 1,392 Climbing Kansas City Center
Mon 13:40:23 36.1078 -95.3711 106° East 358 412 12,700 1,344 Climbing Kansas City Center
Mon 13:41:24 36.0769 -95.2408 106° East 389 448 14,400 1,820 Climbing Kansas City Center
Mon 13:42:25 36.0406 -95.0800 106° East 404 465 16,400 1,756 Climbing Kansas City Center
Mon 13:42:46 36.0331 -95.0464 105° East 401 461 16,800 1,407 Climbing Memphis Center
Mon 13:43:46 36.0217 -94.9019 96° East 407 468 18,300 1,500 Climbing Memphis Center
Mon 13:44:46 36.0289 -94.7561 86° East 416 479 19,800 1,500 Climbing Memphis Center
Mon 13:45:46 36.0342 -94.6050 87° East 426 490 21,300 1,400 Climbing Memphis Center
Mon 13:46:46 36.0392 -94.4539 88° East 431 496 22,600 1,150 Climbing Memphis Center
Mon 13:47:46 36.0464 -94.2950 87° East 443 510 23,600 1,000 Climbing Memphis Center
Mon 13:48:46 36.0514 -94.1333 88° East 457 526 24,600 1,050 Climbing Memphis Center
Mon 13:49:46 36.0542 -93.9719 89° East 462 532 25,700 1,233 Climbing Memphis Center
Mon 13:51:00 36.1001 -93.7900 90° East  Level FlightAware Approximate
Mon 13:51:46 36.0656 -93.6333 90° East 469 540 28,300  Level Memphis Center
Mon 13:52:46 36.0678 -93.4717 89° East 463 533 29,600 1,150 Climbing Memphis Center
Mon 13:53:46 36.0717 -93.3128 88° East 463 533 30,600 1,000 Climbing Memphis Center
Mon 13:54:46 36.0753 -93.1511 88° East 463 533 31,600 1,050 Climbing Memphis Center
Mon 13:55:46 36.0789 -92.9817 88° East 472 543 32,700 1,050 Climbing Memphis Center
Mon 13:56:46 36.0844 -92.8097 88° East 487 560 33,700 1,000 Climbing Memphis Center
Mon 13:57:46 36.0878 -92.6378 89° East 492 566 34,700 650 Climbing Memphis Center
Mon 13:58:46 36.0908 -92.4658 89° East 492 566 35,000 150 Climbing Memphis Center
Mon 13:59:46 36.0958 -92.2861 88° East 504 580 35,000  Level Memphis Center
Mon 14:00:46 36.0964 -92.1011 90° East 515 593 35,000  Level Memphis Center
Mon 14:01:46 36.0944 -91.9392 91° East 521 600 35,000  Level Memphis Center
Mon 14:02:46 36.0986 -91.7569 88° East 521 600 35,000  Level Memphis Center
Mon 14:03:46 36.1028 -91.5772 88° East 526 605 35,000  Level Memphis Center
Mon 14:04:46 36.1022 -91.3975 90° East 526 605 35,000  Level Memphis Center
Mon 14:05:46 36.1056 -91.2175 89° East 521 600 35,000  Level Memphis Center
Mon 14:06:46 36.1047 -91.0403 90° East 515 593 35,000  Level Memphis Center
Mon 14:07:46 36.1097 -90.8631 88° East 515 593 35,000  Level Memphis Center
Mon 14:08:46 36.1122 -90.6858 89° East 515 593 35,000  Level Memphis Center
Mon 14:09:46 36.1169 -90.5033 88° East 515 593 35,000  Level Memphis Center
Mon 14:10:46 36.1211 -90.3286 88° East 515 593 35,000  Level Memphis Center
Mon 14:11:46 36.1231 -90.1514 89° East 515 593 35,000  Level Memphis Center
Mon 14:12:46 36.1267 -89.9742 89° East 515 593 35,000  Level Memphis Center
Mon 14:13:46 36.1281 -89.7994 89° East 515 593 35,000  Level Memphis Center
Mon 14:14:46 36.1292 -89.6247 89° East 515 593 35,000  Level Memphis Center
Mon 14:15:46 36.1322 -89.4447 89° East 515 593 35,000  Level Memphis Center
Mon 14:16:46 36.1331 -89.2700 90° East 510 587 35,000  Level Memphis Center
Mon 14:17:46 36.1375 -89.0925 88° East 510 587 35,000  Level Memphis Center
Mon 14:18:46 36.1397 -88.9203 89° East 510 587 35,000  Level Memphis Center
Mon 14:19:46 36.1419 -88.7481 89° East 510 587 35,000  Level Memphis Center
Mon 14:20:46 36.1458 -88.5758 88° East 505 581 35,000  Level Memphis Center
Mon 14:21:46 36.1453 -88.4036 90° East 499 574 35,000  Level Memphis Center
Mon 14:22:46 36.1467 -88.2364 89° East 494 568 35,000  Level Memphis Center
Mon 14:23:46 36.1433 -88.0514 91° East 494 568 35,000  Level Memphis Center
Mon 14:24:46 36.1464 -87.8792 89° East 494 568 35,000  Level Memphis Center
Mon 14:25:46 36.1453 -87.7303 90° East 488 562 35,000  Level Memphis Center
Mon 14:26:46 36.1436 -87.5581 91° East 494 568 35,000  Level Memphis Center
Mon 14:27:46 36.1419 -87.3936 91° East 494 568 35,000  Level Memphis Center
Mon 14:28:46 36.1419 -87.2214 90° East 494 568 35,000  Level Memphis Center
Mon 14:29:46 36.1375 -87.0519 92° East 494 568 35,000  Level Memphis Center
Mon 14:30:46 36.1369 -86.8822 90° East 494 568 35,000  Level Memphis Center
Mon 14:31:46 36.1364 -86.7128 90° East 494 568 35,000  Level Memphis Center
Mon 14:32:46 36.1922 -86.5636 65° Northeast 467 537 35,000  Level Memphis Center
Mon 14:33:46 36.2608 -86.4242 59° Northeast 467 537 35,000  Level Memphis Center
Mon 14:34:46 36.3314 -86.2817 58° Northeast 474 545 35,000  Level Memphis Center
Mon 14:35:47 36.3994 -86.1389 59° Northeast 474 545 35,000  Level Memphis Center
Mon 14:36:46 36.4656 -85.9961 60° Northeast 474 545 35,000  Level Memphis Center
Mon 14:39:10 36.6300 -85.6506 59° Northeast 479 551 35,000  Level Indianapolis Center
Mon 14:40:12 36.6983 -85.5067 59° Northeast 480 552 35,000  Level Indianapolis Center
Mon 14:41:14 36.7650 -85.3625 60° Northeast 479 551 35,000  Level Indianapolis Center
Mon 14:42:16 36.8317 -85.2192 60° Northeast 477 549 35,000  Level Indianapolis Center
Mon 14:43:18 36.8972 -85.0761 60° Northeast 473 544 35,000  Level Indianapolis Center
Mon 14:44:20 36.9764 -84.9050 60° Northeast 474 545 35,000  Level Indianapolis Center
Mon 14:45:21 37.0433 -84.7589 60° Northeast 482 555 35,000  Level Indianapolis Center
Mon 14:46:23 37.1050 -84.6239 60° Northeast 481 554 35,000  Level Indianapolis Center
Mon 14:47:25 37.1719 -84.4794 60° Northeast 480 552 35,000  Level Indianapolis Center
Mon 14:48:27 37.2475 -84.3086 61° Northeast 478 550 35,000  Level Indianapolis Center
Mon 14:49:29 37.3153 -84.1608 60° Northeast 483 556 35,000  Level Indianapolis Center
Mon 14:50:31 37.3819 -84.0117 61° Northeast 487 560 35,000  Level Indianapolis Center
Mon 14:51:33 37.4489 -83.8617 61° Northeast 489 563 35,000  Level Indianapolis Center
Mon 14:52:34 37.5144 -83.7108 61° Northeast 489 563 35,000  Level Indianapolis Center
Mon 14:53:36 37.5819 -83.5597 61° Northeast 491 565 35,000  Level Indianapolis Center
Mon 14:54:38 37.6594 -83.3839 61° Northeast 490 564 35,000  Level Indianapolis Center
Mon 14:55:40 37.7256 -83.2308 61° Northeast 489 563 35,000  Level Indianapolis Center
Mon 14:56:42 37.7944 -83.0736 61° Northeast 507 583 35,000  Level Indianapolis Center
Mon 14:57:43 37.8600 -82.9219 61° Northeast 493 567 35,000  Level Indianapolis Center
Mon 14:58:45 37.9272 -82.7686 61° Northeast 497 572 35,000  Level Indianapolis Center
Mon 14:59:47 37.9947 -82.6125 61° Northeast 500 575 35,000  Level Indianapolis Center
Mon 15:00:49 38.0600 -82.4572 62° Northeast 499 574 35,000  Level Indianapolis Center
Mon 15:01:50 38.1275 -82.2975 62° Northeast 507 583 35,000  Level Indianapolis Center
Mon 15:02:52 38.1944 -82.1411 61° Northeast 504 580 35,000  Level Indianapolis Center
Mon 15:03:54 38.2411 -81.9772 70° East 507 583 35,000  Level Indianapolis Center
Mon 15:04:56 38.2544 -81.7694 85° East 495 570 35,000  Level Indianapolis Center
Mon 15:05:58 38.2656 -81.5964 85° East 496 571 35,000  Level Indianapolis Center
Mon 15:06:59 38.2756 -81.4228 86° East 498 573 35,000 -390 Level Indianapolis Center
Mon 15:08:01 38.2867 -81.2511 85° East 493 567 34,200 -871 Descending Indianapolis Center
Mon 15:09:03 38.2967 -81.0828 86° East 484 557 33,200 -935 Descending Indianapolis Center
Mon 15:09:18 38.2986 -81.0183 88° East 461 531 33,000 -158 Descending Washington Center
Mon 15:10:19 38.3103 -80.8500 85° East 461 531 33,000 -450 Level Washington Center
Mon 15:11:18 38.3133 -80.6833 89° East 467 537 32,100 -1,150 Descending Washington Center
Mon 15:12:19 38.3039 -80.5133 94° East 472 543 30,700 -1,388 Descending Washington Center
Mon 15:13:19 38.3225 -80.3583 81° East 480 552 29,300 -1,412 Descending Washington Center
Mon 15:14:18 38.3519 -80.1908 77° East 480 552 27,900 -1,400 Descending Washington Center
Mon 15:15:19 38.3875 -80.0233 75° East 485 558 26,500 -1,240 Descending Washington Center
Mon 15:16:19 38.4247 -79.8614 74° East 480 552 25,400 -1,100 Descending Washington Center
Mon 15:17:19 38.4683 -79.6836 73° East 474 545 24,300 -700 Descending Washington Center
Mon 15:18:19 38.5053 -79.5211 74° East 469 540 24,000 -150 Descending Washington Center
Mon 15:19:19 38.5372 -79.3633 75° East 469 540 24,000 -504 Level Washington Center
Mon 15:20:18 38.5628 -79.2108 78° East 461 531 23,000 -1,200 Descending Washington Center
Mon 15:21:19 38.5881 -79.0658 77° East 441 507 21,600 -1,587 Descending Washington Center
Mon 15:22:19 38.6108 -78.9233 78° East 427 491 19,800 -1,866 Descending Washington Center
Mon 15:23:18 38.6353 -78.7889 77° East 406 467 17,900 -1,966 Descending Washington Center
Mon 15:24:18 38.6658 -78.6628 73° East 383 441 15,900 -1,934 Descending Washington Center
Mon 15:25:19 38.6939 -78.5414 73° East 364 419 14,000 -2,281 Descending Washington Center
Mon 15:26:19 38.7217 -78.4228 73° East 351 404 11,300 -1,850 Descending Washington Center
Mon 15:27:19 38.7611 -78.3339 60° Northeast 316 364 10,300 -1,150 Descending Washington Center
Mon 15:28:19 38.8150 -78.2611 46° Northeast 289 333 9,000 -1,100 Descending Washington Center
Mon 15:29:19 38.8625 -78.1803 53° Northeast 284 327 8,100 -950 Descending Washington Center
Mon 15:30:19 38.8856 -78.0850 73° East 272 313 7,100 -1,000 Descending Washington Center
Mon 15:31:19 38.9061 -77.9950 74° East 267 307 6,100 -550 Descending Washington Center
Mon 15:32:19 38.9286 -77.9078 72° East 261 300 6,000 -50 Descending Washington Center
Mon 15:33:19 38.9511 -77.8178 72° East 261 300 6,000  Level Washington Center
Mon 15:35:08 38.9500 -77.6500 90° East 248 285 6,000  Level Potomac TRACON
Mon 15:36:08 39.0000 -77.5833 46° Northeast 247 284 6,000  Level Potomac TRACON
Mon 15:37:03 39.0500 -77.5667 15° North 248 285 6,000 -417 Level Potomac TRACON
Mon 15:38:03 39.1167 -77.5667 360° North 234 269 5,200 -1,000 Descending Potomac TRACON
Mon 15:39:03 39.1333 -77.5333 57° Northeast 205 236 4,000 -1,500 Descending Potomac TRACON
Mon 15:40:03 39.0833 -77.4833 142° Southeast 205 236 2,200 -1,190 Descending Potomac TRACON
Mon 15:41:04 39.0333 -77.4667 165° South 157 181 1,600 -672 Descending Potomac TRACON
Mon 15:41:59 39.0000 -77.4667 180° South 144 166 900 -764 Descending Potomac TRACON
Mon 15:43:00 38.9474 -77.4599 159° South  Level Estimated
Mon 15:50:00 38.9474 -77.4599 159° South  Level Estimated
Mon 15:51:00 38.9474 -77.4599 159° South  Level Estimated

Login

Don't have an account? Register now (free) for customized features, flight alerts, and more!